This is the latest recevied weather packets stored in our database for station/object KU9TRY. If no packets are shown the sender has not sent any weather packets the latest 10 day(s).
| Time | Temp. | Humidity | Pressure | Rain* | Wind** | Luminosity | Snow |
|---|---|---|---|---|---|---|---|
| 1777774583 | 8.33° C | 88% | 1019.1 hPa | 0 mm | - | 0 W/m² | - |
| 1777774280 | 8.89° C | 87% | 1019.1 hPa | 0 mm | - | 0 W/m² | - |
| 1777773977 | 8.89° C | 87% | 1019.2 hPa | 0 mm | - | 0 W/m² | - |
| 1777773674 | 8.89° C | 87% | 1019.3 hPa | 0 mm | - | 0 W/m² | - |
| 1777773371 | 8.89° C | 86% | 1019.1 hPa | 0 mm | - | 0 W/m² | - |
| 1777773068 | 8.89° C | 86% | 1019.1 hPa | 0 mm | - | 0 W/m² | - |
| 1777771554 | 10° C | 84% | 1018.7 hPa | 0 mm | - | 0 W/m² | - |
| 1777770340 | 10° C | 84% | 1018.6 hPa | 0 mm | - | 0 W/m² | - |
| 1777770038 | 10° C | 86% | 1018.6 hPa | 0 mm | - | 0 W/m² | - |
| 1777768220 | 11.11° C | 80% | 1018.4 hPa | 0 mm | - | 2 W/m² | - |
| 1777767917 | 11.11° C | 79% | 1018.4 hPa | 0 mm | - | 3 W/m² | - |
| 1777767008 | 11.67° C | 72% | 1018 hPa | 0 mm | - | 3 W/m² | - |
| 1777764885 | 12.78° C | 67% | 1017.1 hPa | 0 mm | - | 17 W/m² | - |
| 1777761855 | 15.56° C | 49% | 1015.7 hPa | 0 mm | - | 24 W/m² | - |
| 1777761552 | 15.56° C | 48% | 1015.6 hPa | 0 mm | - | 45 W/m² | - |
| 1777761250 | 15.56° C | 54% | 1015.7 hPa | 0 mm | - | 61 W/m² | - |
| 1777760948 | 15.56° C | 54% | 1015.6 hPa | 0 mm | - | 100 W/m² | - |
| 1777760645 | 15.56° C | 50% | 1015.6 hPa | 0 mm | - | 37 W/m² | - |
| 1777760037 | 16.11° C | 51% | 1015.5 hPa | 0 mm | - | 34 W/m² | - |
| 1777759734 | 16.11° C | 50% | 1015.5 hPa | 0 mm | - | 40 W/m² | - |
| 1777759430 | 16.67° C | 49% | 1015.4 hPa | 0 mm | - | 31 W/m² | - |
| 1777759127 | 16.67° C | 41% | 1015.3 hPa | 0 mm | - | 42 W/m² | - |
| 1777758824 | 17.22° C | 50% | 1015.1 hPa | 0 mm | - | 71 W/m² | - |
| 1777758521 | 17.22° C | 46% | 1015.1 hPa | 0 mm | - | 96 W/m² | - |
| 1777757915 | 17.22° C | 35% | 1015.2 hPa | 0 mm | - | 83 W/m² | - |
* Rain latest hour (hover to see other rain measurements)
** Current wind speed in m/s (hover to see current wind gust speed)